Time;durP1;ratioP1;P1;durP2;ratioP2;P2;SDS_P1;SDS_P2;PMS_P1;PMS_P2;Temp;Humidity;BMP_temperature;BMP_pressure;BME280_temperature;BME280_humidity;BME280_pressure;Samples;Min_cycle;Max_cycle;Signal;HPM_P1;HPM_P2
2023/09/17 00:01:09;558195.00;1.86;962.09;85378.00;0.28;148.33;;;;;25.60;1.00;;;;;;2280235;61;1705;-90
2023/09/17 00:03:38;542942.00;1.81;935.79;0.00;0.00;0.62;;;;;25.60;1.00;;;;;;2280314;61;1039;-88
2023/09/17 00:06:05;841031.00;2.80;1452.78;531.00;0.00;1.54;;;;;25.60;1.00;;;;;;2280258;61;1099;-89
2023/09/17 00:08:32;698952.00;2.33;1205.42;10975.00;0.04;19.64;;;;;25.60;1.00;;;;;;2280275;61;1110;-88
2023/09/17 00:10:59;474630.00;1.58;818.16;0.00;0.00;0.62;;;;;25.40;1.00;;;;;;2280194;61;1227;-89
2023/09/17 00:13:26;512239.00;1.71;882.90;25260.00;0.08;44.38;;;;;25.50;1.00;;;;;;2280255;61;978;-88
2023/09/17 00:15:53;733723.00;2.45;1265.77;71004.00;0.24;123.50;;;;;25.50;1.00;;;;;;2280222;61;1005;-88
2023/09/17 00:18:20;890540.00;2.97;1539.51;101772.00;0.34;176.63;;;;;25.60;1.00;;;;;;2280267;61;1431;-88
2023/09/17 00:20:48;642254.00;2.14;1107.24;14665.00;0.05;26.03;;;;;25.50;1.00;;;;;;2280229;61;1931;-89
2023/09/17 00:23:16;662336.00;2.21;1141.98;73156.00;0.24;127.21;;;;;25.30;1.00;;;;;;2280198;61;1156;-88
2023/09/17 00:25:42;667198.00;2.22;1150.40;15542.00;0.05;27.55;;;;;25.30;1.00;;;;;;2280255;61;1205;-89
2023/09/17 00:28:10;711827.00;2.37;1227.75;17628.00;0.06;31.16;;;;;25.20;1.00;;;;;;2279923;61;1778;-89
2023/09/17 00:30:37;619783.00;2.07;1068.39;10851.00;0.04;19.42;;;;;25.10;1.00;;;;;;2279996;61;1429;-90
2023/09/17 00:33:04;560831.00;1.87;966.63;44349.00;0.15;77.41;;;;;25.00;1.00;;;;;;2280179;61;1106;-90
2023/09/17 00:35:31;473928.00;1.58;816.95;19083.00;0.06;33.68;;;;;25.00;1.00;;;;;;2280207;61;1089;-89
2023/09/17 00:37:59;621309.00;2.07;1071.03;0.00;0.00;0.62;;;;;25.00;1.00;;;;;;2280116;61;1579;-87
2023/09/17 00:40:29;586869.00;1.96;1011.55;57319.00;0.19;99.84;;;;;25.00;1.00;;;;;;2279962;61;2002;-88
2023/09/17 00:42:56;875791.00;2.92;1513.64;85984.00;0.29;149.37;;;;;25.10;1.00;;;;;;2280171;61;1081;-87
2023/09/17 00:45:24;676860.00;2.26;1167.13;75339.00;0.25;130.99;;;;;25.00;1.00;;;;;;2280113;61;1721;-88
2023/09/17 00:47:51;583103.00;1.94;1005.05;13202.00;0.04;23.50;;;;;24.90;1.00;;;;;;2279837;61;1050;-91
2023/09/17 00:50:18;707691.00;2.36;1220.58;135540.00;0.45;234.88;;;;;24.90;1.00;;;;;;2280096;61;1332;-89
2023/09/17 00:52:45;806283.00;2.69;1392.08;75274.00;0.25;130.87;;;;;24.70;1.00;;;;;;2280062;61;1575;-88
2023/09/17 00:55:14;1013122.00;3.38;1755.73;165843.00;0.55;287.11;;;;;24.60;1.00;;;;;;2279991;61;1692;-88
2023/09/17 00:57:45;674560.00;2.25;1163.15;30734.00;0.10;53.85;;;;;24.60;1.00;;;;;;2280094;61;1549;-89
2023/09/17 01:00:14;1013197.00;3.38;1755.86;129289.00;0.43;224.10;;;;;24.60;1.00;;;;;;2280063;61;1915;-87
2023/09/17 01:02:42;587935.00;1.96;1013.39;62187.00;0.21;108.26;;;;;24.60;1.00;;;;;;2282342;55;3792;-88
2023/09/17 01:05:10;987445.00;3.29;1710.25;95147.00;0.32;165.19;;;;;24.60;1.00;;;;;;2284125;60;991;-89
2023/09/17 01:07:38;794935.00;2.65;1372.29;109128.00;0.36;189.33;;;;;24.50;1.00;;;;;;2284148;60;945;-87
2023/09/17 01:10:06;1146342.00;3.82;1993.50;177951.00;0.59;307.96;;;;;24.60;1.00;;;;;;2283975;60;1363;-87
2023/09/17 01:12:35;1042035.00;3.47;1807.06;103969.00;0.35;180.42;;;;;24.60;1.00;;;;;;2284165;60;1143;-89
2023/09/17 01:15:04;120899416.00;403.00;71587272.00;183710.00;0.61;317.88;;;;;24.20;1.00;;;;;;2284076;60;935;-87
2023/09/17 01:17:31;626543.00;2.09;1080.07;84113.00;0.28;146.14;;;;;23.80;1.00;;;;;;2284031;60;1098;-89
2023/09/17 01:19:59;914291.00;3.05;1581.23;200641.00;0.67;347.03;;;;;23.90;1.00;;;;;;2284030;60;1915;-87
2023/09/17 01:22:35;451906.00;1.51;779.06;75392.00;0.25;131.08;;;;;24.10;1.00;;;;;;2284037;60;1643;-88
2023/09/17 01:25:11;718967.00;2.40;1240.15;131398.00;0.44;227.74;;;;;24.10;1.00;;;;;;2284023;60;968;-88
2023/09/17 01:27:40;127666536.00;425.56;84306624.00;118246.00;0.39;205.06;;;;;24.10;1.00;;;;;;2284018;60;1091;-88
2023/09/17 01:30:15;740398.00;2.47;1277.37;98204.00;0.33;170.47;;;;;24.10;1.00;;;;;;2284062;60;1381;-88
2023/09/17 01:32:42;1125176.00;3.75;1955.51;128745.00;0.43;223.17;;;;;24.10;1.00;;;;;;2283890;60;1037;-88
2023/09/17 01:35:10;952105.00;3.17;1647.82;139476.00;0.46;241.67;;;;;24.10;1.00;;;;;;2283997;60;970;-89
2023/09/17 01:37:41;1407585.00;4.69;2470.40;371160.00;1.24;640.23;;;;;24.30;1.00;;;;;;2284019;60;1452;-88
2023/09/17 01:40:12;2096542.00;6.99;3824.48;137460.00;0.46;238.19;;;;;24.30;1.00;;;;;;2284001;60;1923;-88
2023/09/17 01:42:43;1385139.00;4.62;2428.79;125628.00;0.42;217.79;;;;;24.20;1.00;;;;;;2284067;60;1118;-88
2023/09/17 01:45:13;1578328.00;5.26;2791.39;164937.00;0.55;285.54;;;;;24.40;1.00;;;;;;2284059;60;1024;-89
2023/09/17 01:47:42;3721317.00;12.40;7965.72;1923889.00;6.41;3469.20;;;;;24.40;1.00;;;;;;2284019;60;2293;-88
2023/09/17 01:50:11;1158501.00;3.86;2015.37;199653.00;0.67;345.33;;;;;24.20;1.00;;;;;;2284042;60;1334;-88
2023/09/17 01:52:39;1098060.00;3.66;1906.95;193470.00;0.64;334.68;;;;;24.20;1.00;;;;;;2284039;60;1121;-88
2023/09/17 01:55:08;1245420.00;4.15;2172.56;141056.00;0.47;244.39;;;;;24.40;1.00;;;;;;2284101;60;996;-87
2023/09/17 01:57:36;1196502.00;3.99;2083.90;148395.00;0.49;257.04;;;;;24.70;1.00;;;;;;2284072;60;1028;-88
2023/09/17 02:00:14;1335444.00;4.45;2337.12;141040.00;0.47;244.36;;;;;24.60;1.00;;;;;;2284398;60;1998;-88
2023/09/17 02:02:43;1384754.00;4.62;2428.08;408317.00;1.36;704.10;;;;;24.60;1.00;;;;;;2284612;60;1096;-88
2023/09/17 02:05:10;1123049.00;3.74;1951.69;31481.00;0.10;55.15;;;;;24.50;1.00;;;;;;2284736;60;1098;-87
2023/09/17 02:07:37;1839501.00;6.13;3299.81;74294.00;0.25;129.18;;;;;24.40;1.00;;;;;;2284669;60;1482;-87
2023/09/17 02:10:04;954639.00;3.18;1652.29;66413.00;0.22;115.56;;;;;24.30;1.00;;;;;;2284652;60;1380;-88
2023/09/17 02:12:31;1437382.00;4.79;2525.84;402114.00;1.34;693.44;;;;;24.30;1.00;;;;;;2284703;60;1595;-87
2023/09/17 02:14:58;1129388.00;3.76;1963.06;129774.00;0.43;224.94;;;;;24.30;1.00;;;;;;2284653;60;1051;-89
2023/09/17 02:17:27;1211867.00;4.04;2111.69;165261.00;0.55;286.10;;;;;24.40;1.00;;;;;;2284742;60;1039;-88
2023/09/17 02:19:53;1288174.00;4.29;2250.48;109327.00;0.36;189.67;;;;;24.30;1.00;;;;;;2284662;60;1922;-88
2023/09/17 02:22:20;1178872.00;3.93;2052.07;408952.00;1.36;705.20;;;;;24.30;1.00;;;;;;2284715;60;988;-87
2023/09/17 02:24:48;656637.00;2.19;1132.12;40821.00;0.14;71.31;;;;;24.40;1.00;;;;;;2284621;60;1553;-88
2023/09/17 02:27:15;1103989.00;3.68;1917.56;329497.00;1.10;568.62;;;;;24.30;1.00;;;;;;2284664;60;1060;-86
2023/09/17 02:29:42;496217.00;1.65;855.31;28374.00;0.09;49.77;;;;;24.20;1.00;;;;;;2284599;60;1292;-89
2023/09/17 02:32:09;652738.00;2.18;1125.37;26593.00;0.09;46.69;;;;;24.20;1.00;;;;;;2284712;60;961;-88
2023/09/17 02:34:38;845736.00;2.82;1461.01;215146.00;0.72;371.99;;;;;24.20;1.00;;;;;;2284622;60;1708;-88
2023/09/17 02:37:05;570288.00;1.90;982.94;0.00;0.00;0.62;;;;;24.10;1.00;;;;;;2284683;60;978;-88
2023/09/17 02:39:32;656984.00;2.19;1132.72;7280.00;0.02;13.24;;;;;24.20;1.00;;;;;;2284564;60;1919;-89
2023/09/17 02:41:59;644431.00;2.15;1111.00;25369.00;0.08;44.57;;;;;24.40;1.00;;;;;;2284639;60;1025;-87
2023/09/17 02:44:26;1135161.00;3.78;1973.42;125030.00;0.42;216.76;;;;;24.30;1.00;;;;;;2284424;60;1029;-90
2023/09/17 02:46:53;331157.00;1.10;571.47;0.00;0.00;0.62;;;;;24.20;1.00;;;;;;2284444;60;1057;-87
2023/09/17 02:49:21;465735.00;1.55;802.85;21564.00;0.07;37.98;;;;;24.00;1.00;;;;;;2284476;60;1268;-88
2023/09/17 02:51:50;487815.00;1.63;840.85;36408.00;0.12;63.67;;;;;24.00;1.00;;;;;;2285045;39;3608;-87
2023/09/17 02:54:17;1927290.00;6.42;3476.08;671497.00;2.24;1157.85;;;;;24.10;1.00;;;;;;2276345;61;1586;-88
2023/09/17 02:56:44;435970.00;1.45;751.65;0.00;0.00;0.62;;;;;24.20;1.00;;;;;;2276390;61;1726;-89
2023/09/17 02:59:13;757603.00;2.53;1307.28;8668.00;0.03;15.64;;;;;24.20;1.00;;;;;;2276269;61;1635;-90
2023/09/17 03:01:40;630969.00;2.10;1087.72;10032.00;0.03;18.00;;;;;24.00;1.00;;;;;;2276470;61;2005;-88
2023/09/17 03:04:07;946501.00;3.16;1637.94;281969.00;0.94;486.92;;;;;24.10;1.00;;;;;;2276686;61;1777;-89
2023/09/17 03:06:34;696308.00;2.32;1200.84;68836.00;0.23;119.75;;;;;24.20;1.00;;;;;;2276664;61;1616;-87
2023/09/17 03:09:04;892124.00;2.97;1542.29;102605.00;0.34;178.07;;;;;24.20;1.00;;;;;;2276623;61;1278;-88
2023/09/17 03:11:31;719568.00;2.40;1241.19;83182.00;0.28;144.53;;;;;24.00;1.00;;;;;;2276503;61;1043;-88
2023/09/17 03:13:58;1256772.00;4.19;2193.21;178514.00;0.60;308.93;;;;;23.50;1.00;;;;;;2276605;61;1629;-90
2023/09/17 03:16:25;1030325.00;3.43;1786.26;72004.00;0.24;125.22;;;;;23.40;1.00;;;;;;2276595;61;1716;-87
2023/09/17 03:18:52;812691.00;2.71;1403.27;90023.00;0.30;156.35;;;;;23.00;1.00;;;;;;2276583;61;1805;-90
2023/09/17 03:21:19;872869.00;2.91;1508.52;76133.00;0.25;132.36;;;;;22.80;1.00;;;;;;2294937;56;3819;-89
2023/09/17 03:23:46;970517.00;3.24;1680.32;87300.00;0.29;151.65;;;;;22.30;1.10;;;;;;2280506;61;1093;-88
2023/09/17 03:26:14;839618.00;2.80;1450.31;71525.00;0.24;124.40;;;;;22.00;2.00;;;;;;2299014;39;3603;-89
2023/09/17 03:28:41;1208093.00;4.03;2104.86;97741.00;0.33;169.67;;;;;22.10;1.90;;;;;;2280468;61;1276;-90
2023/09/17 03:33:37;4856123.00;16.19;12087.72;1652545.00;5.51;2933.59;;;;;22.20;1.10;;;;;;2278108;61;1424;-91
2023/09/17 03:36:07;118358328.00;394.53;67163688.00;147740.00;0.49;255.91;;;;;22.30;1.00;;;;;;2276589;61;1043;-87
2023/09/17 03:38:34;881685.00;2.94;1523.98;95214.00;0.32;165.31;;;;;22.50;1.00;;;;;;2276589;61;994;-88
2023/09/17 03:41:01;664033.00;2.21;1144.92;78747.00;0.26;136.87;;;;;22.70;1.00;;;;;;2276504;61;1918;-87
2023/09/17 03:43:33;650712.00;2.17;1121.87;75184.00;0.25;130.72;;;;;22.90;1.00;;;;;;2276457;61;1679;-87
2023/09/17 03:46:00;1103804.00;3.68;1917.23;30176.00;0.10;52.89;;;;;22.70;1.00;;;;;;2276635;61;1333;-87
2023/09/17 03:48:27;645074.00;2.15;1112.11;18820.00;0.06;33.23;;;;;22.60;1.00;;;;;;2276596;61;1523;-89
2023/09/17 03:50:54;740830.00;2.47;1278.12;28964.00;0.10;50.79;;;;;22.90;1.00;;;;;;2276573;61;1393;-89
2023/09/17 03:53:21;677228.00;2.26;1167.77;60745.00;0.20;105.76;;;;;22.80;1.00;;;;;;2276565;61;1008;-88
2023/09/17 03:55:49;671801.00;2.24;1158.37;12394.00;0.04;22.10;;;;;22.90;1.00;;;;;;2276516;61;1851;-87
2023/09/17 03:58:16;861453.00;2.87;1488.52;111868.00;0.37;194.05;;;;;23.20;1.00;;;;;;2276540;61;1195;-88
2023/09/17 04:00:44;763578.00;2.55;1317.68;100030.00;0.33;173.62;;;;;23.30;1.00;;;;;;2276435;61;1918;-88
2023/09/17 04:03:14;892782.00;2.98;1543.45;36100.00;0.12;63.14;;;;;23.60;1.00;;;;;;2276453;61;1624;-87
2023/09/17 04:05:42;631086.00;2.10;1087.93;73763.00;0.25;128.26;;;;;23.70;1.00;;;;;;2276491;61;1255;-87
2023/09/17 04:08:08;351434.00;1.17;606.33;0.00;0.00;0.62;;;;;23.60;1.00;;;;;;2276513;61;1086;-87
2023/09/17 04:10:35;695731.00;2.32;1199.84;41529.00;0.14;72.53;;;;;23.60;1.00;;;;;;2276393;61;1460;-89
2023/09/17 04:13:02;779012.00;2.60;1344.54;69787.00;0.23;121.39;;;;;23.50;1.00;;;;;;2276450;61;1733;-89
2023/09/17 04:15:29;963313.00;3.21;1667.60;68980.00;0.23;120.00;;;;;23.50;1.00;;;;;;2276439;61;1670;-87
2023/09/17 04:17:57;866114.00;2.89;1496.68;82793.00;0.28;143.86;;;;;23.70;1.00;;;;;;2276470;61;1044;-88
2023/09/17 04:20:27;711269.00;2.37;1226.79;35294.00;0.12;61.75;;;;;23.70;1.00;;;;;;2276305;61;2017;-87
2023/09/17 04:22:53;651586.00;2.17;1123.38;17343.00;0.06;30.67;;;;;23.60;1.00;;;;;;2276324;61;1662;-87
2023/09/17 04:25:25;882124.00;2.94;1524.75;231783.00;0.77;400.62;;;;;23.40;1.00;;;;;;2276390;61;964;-89
2023/09/17 04:27:52;568564.00;1.90;979.97;18811.00;0.06;33.21;;;;;23.60;1.00;;;;;;2276370;61;1600;-89
2023/09/17 04:30:19;6393356.00;21.31;20003.31;3436602.00;11.46;7112.29;;;;;23.70;1.00;;;;;;2279636;39;3656;-88
2023/09/17 04:32:48;4815143.00;16.05;11916.30;1007217.00;3.36;1745.26;;;;;23.70;1.00;;;;;;2280504;61;879;-88
2023/09/17 04:35:18;561444.00;1.87;967.69;0.00;0.00;0.62;;;;;23.70;1.00;;;;;;2280507;61;1005;-89
2023/09/17 04:37:46;574616.00;1.92;990.41;13195.00;0.04;23.48;;;;;23.40;1.00;;;;;;2280503;61;1007;-89
2023/09/17 04:40:13;731055.00;2.44;1261.13;48463.00;0.16;84.53;;;;;23.60;1.00;;;;;;2280345;61;1918;-88
2023/09/17 04:42:43;607390.00;2.02;1046.98;47525.00;0.16;82.91;;;;;23.70;1.00;;;;;;2280417;61;1094;-89
2023/09/17 04:45:12;529134.00;1.76;912.00;34852.00;0.12;60.98;;;;;23.60;1.00;;;;;;2280342;61;1058;-90
2023/09/17 04:47:40;661212.00;2.20;1140.04;46766.00;0.16;81.59;;;;;23.30;1.00;;;;;;2280462;61;912;-88
2023/09/17 04:50:09;697172.00;2.32;1202.33;84989.00;0.28;147.65;;;;;23.30;1.00;;;;;;2280384;61;1717;-87
2023/09/17 04:52:38;645512.00;2.15;1112.87;14807.00;0.05;26.28;;;;;23.40;1.00;;;;;;2280455;61;949;-90
2023/09/17 04:55:05;663776.00;2.21;1144.48;20797.00;0.07;36.65;;;;;23.40;1.00;;;;;;2280451;61;1082;-88
2023/09/17 04:57:32;730127.00;2.43;1259.52;0.00;0.00;0.62;;;;;23.40;1.00;;;;;;2280446;61;1088;-88
2023/09/17 05:00:07;788358.00;2.63;1360.83;48558.00;0.16;84.69;;;;;23.40;1.00;;;;;;2280372;61;2006;-90
2023/09/17 05:02:34;403271.00;1.34;695.43;0.00;0.00;0.62;;;;;23.40;1.00;;;;;;2280250;61;1047;-91
2023/09/17 05:05:00;490858.00;1.64;846.09;0.00;0.00;0.62;;;;;23.40;1.00;;;;;;2280328;61;1009;-88
2023/09/17 05:07:27;524396.00;1.75;903.84;0.00;0.00;0.62;;;;;23.30;1.00;;;;;;2280342;61;1000;-89
2023/09/17 05:09:55;409169.00;1.36;705.57;12082.00;0.04;21.56;;;;;23.20;1.00;;;;;;2280414;61;1317;-87
2023/09/17 05:12:22;621943.00;2.07;1072.12;32179.00;0.11;56.35;;;;;23.40;1.00;;;;;;2280346;61;1698;-89
2023/09/17 05:14:49;444344.00;1.48;766.05;0.00;0.00;0.62;;;;;23.70;1.00;;;;;;2280427;61;936;-89
2023/09/17 05:17:17;393090.00;1.31;677.93;0.00;0.00;0.62;;;;;23.60;1.00;;;;;;2280387;61;1111;-88
2023/09/17 05:19:44;451743.00;1.51;778.78;0.00;0.00;0.62;;;;;23.70;1.00;;;;;;2280298;61;1694;-88
2023/09/17 05:22:11;689139.00;2.30;1188.41;0.00;0.00;0.62;;;;;23.40;1.00;;;;;;2280325;61;2004;-89
2023/09/17 05:24:38;410789.00;1.37;708.35;0.00;0.00;0.62;;;;;23.00;1.00;;;;;;2280372;61;1091;-88
2023/09/17 05:27:06;349999.00;1.17;603.86;0.00;0.00;0.62;;;;;22.40;1.00;;;;;;2280355;61;987;-86
2023/09/17 05:29:33;712976.00;2.38;1229.75;13924.00;0.05;24.75;;;;;22.10;1.40;;;;;;2280263;61;1631;-88
2023/09/17 05:32:00;406548.00;1.36;701.06;0.00;0.00;0.62;;;;;22.10;2.20;;;;;;2280318;61;1027;-89
2023/09/17 05:34:26;643854.00;2.15;1110.00;101092.00;0.34;175.46;;;;;21.80;2.70;;;;;;2280658;61;1546;-88
2023/09/17 05:36:53;939758.00;3.13;1626.06;140651.00;0.47;243.69;;;;;21.70;3.40;;;;;;2281115;61;1126;-87
2023/09/17 05:39:20;523900.00;1.75;902.98;125532.00;0.42;217.62;;;;;21.50;4.00;;;;;;2281075;61;1232;-88
2023/09/17 05:41:47;469621.00;1.57;809.54;58928.00;0.20;102.62;;;;;21.50;4.80;;;;;;2280945;61;2002;-88
2023/09/17 05:44:15;536282.00;1.79;924.32;74882.00;0.25;130.20;;;;;21.30;5.10;;;;;;2280974;61;1545;-87
2023/09/17 05:46:42;763483.00;2.54;1317.51;77360.00;0.26;134.48;;;;;21.40;5.50;;;;;;2280964;61;1082;-89
2023/09/17 05:49:09;623958.00;2.08;1075.61;82855.00;0.28;143.97;;;;;21.40;4.90;;;;;;2281000;61;1368;-88
2023/09/17 05:51:36;649856.00;2.17;1120.39;96199.00;0.32;167.01;;;;;21.30;5.60;;;;;;2281019;61;1077;-89
2023/09/17 05:54:03;738817.00;2.46;1274.62;69522.00;0.23;120.93;;;;;21.30;5.20;;;;;;2280931;61;2150;-87
2023/09/17 05:56:30;536387.00;1.79;924.50;76822.00;0.26;133.55;;;;;21.30;5.80;;;;;;2281052;61;929;-89
2023/09/17 05:58:56;739331.00;2.46;1275.51;74555.00;0.25;129.63;;;;;21.30;5.20;;;;;;2280993;61;1381;-88
2023/09/17 06:01:25;583875.00;1.95;1006.39;81729.00;0.27;142.02;;;;;21.50;4.10;;;;;;2280859;61;1919;-89
2023/09/17 06:03:51;800529.00;2.67;1382.05;78717.00;0.26;136.82;;;;;21.50;4.40;;;;;;2280911;61;1556;-89
2023/09/17 06:06:18;651556.00;2.17;1123.33;71071.00;0.24;123.61;;;;;21.70;4.10;;;;;;2280974;61;1643;-89
2023/09/17 06:08:45;605529.00;2.02;1043.77;70527.00;0.24;122.67;;;;;21.70;3.70;;;;;;2280907;61;1261;-89
2023/09/17 06:11:12;580529.00;1.94;1000.61;71443.00;0.24;124.25;;;;;21.70;3.50;;;;;;2280960;61;1072;-88
2023/09/17 06:13:39;767695.00;2.56;1324.84;92425.00;0.31;160.49;;;;;21.80;3.40;;;;;;2280979;61;921;-88
2023/09/17 06:16:06;808445.00;2.69;1395.86;70876.00;0.24;123.27;;;;;21.90;3.70;;;;;;2280976;61;1097;-87
2023/09/17 06:18:34;491203.00;1.64;846.68;93258.00;0.31;161.93;;;;;21.60;4.30;;;;;;2280957;61;894;-89
2023/09/17 06:21:02;794119.00;2.65;1370.87;101083.00;0.34;175.44;;;;;21.80;4.00;;;;;;2280934;61;1921;-89
2023/09/17 06:23:29;653896.00;2.18;1127.38;75331.00;0.25;130.97;;;;;22.10;3.30;;;;;;2280966;61;1023;-88
2023/09/17 06:25:56;622562.00;2.08;1073.19;73430.00;0.24;127.69;;;;;22.20;3.50;;;;;;2280927;61;965;-89
2023/09/17 06:28:23;473933.00;1.58;816.96;64446.00;0.21;112.16;;;;;22.50;2.90;;;;;;2280839;61;1726;-87
2023/09/17 06:30:50;565452.00;1.88;974.60;70190.00;0.23;122.09;;;;;22.90;2.00;;;;;;2280774;61;1380;-89
2023/09/17 06:33:17;627314.00;2.09;1081.41;114608.00;0.38;198.78;;;;;23.00;1.30;;;;;;2280820;61;1640;-88
2023/09/17 06:35:45;564307.00;1.88;972.63;82861.00;0.28;143.98;;;;;22.80;1.90;;;;;;2280866;61;1080;-88
2023/09/17 06:38:13;594732.00;1.98;1025.12;13183.00;0.04;23.46;;;;;22.60;2.90;;;;;;2280888;61;1119;-87
2023/09/17 06:40:40;700638.00;2.34;1208.34;82688.00;0.28;143.68;;;;;22.80;2.50;;;;;;2280764;61;2010;-87
2023/09/17 06:43:07;788047.00;2.63;1360.29;87365.00;0.29;151.76;;;;;23.00;2.10;;;;;;2280873;61;1146;-86
2023/09/17 06:45:34;697821.00;2.33;1203.46;75747.00;0.25;131.69;;;;;23.20;2.10;;;;;;2280577;61;1099;-88
2023/09/17 06:48:01;810244.00;2.70;1398.99;77813.00;0.26;135.26;;;;;23.60;1.00;;;;;;2280859;61;915;-87
2023/09/17 06:50:28;670499.00;2.23;1156.12;56950.00;0.19;99.20;;;;;24.10;1.00;;;;;;2280803;61;1292;-87
2023/09/17 06:52:56;389311.00;1.30;671.43;76204.00;0.25;132.48;;;;;24.40;1.00;;;;;;2280840;61;1019;-88
2023/09/17 06:55:23;473951.00;1.58;816.99;62469.00;0.21;108.74;;;;;24.90;1.00;;;;;;2280823;61;1106;-89
2023/09/17 06:57:50;524069.00;1.75;903.27;65922.00;0.22;114.71;;;;;25.30;1.00;;;;;;2280810;61;1066;-89
2023/09/17 07:00:17;658237.00;2.19;1134.89;68961.00;0.23;119.96;;;;;26.30;1.00;;;;;;2280782;61;1346;-89
2023/09/17 07:02:44;623978.00;2.08;1075.64;91548.00;0.31;158.98;;;;;27.40;1.00;;;;;;2280740;61;2009;-90
2023/09/17 07:05:11;685901.00;2.29;1182.80;64367.00;0.21;112.03;;;;;28.10;1.00;;;;;;2280768;61;1106;-88
2023/09/17 07:07:38;609853.00;2.03;1051.24;68930.00;0.23;119.91;;;;;29.10;1.00;;;;;;2280739;61;2306;-88
2023/09/17 07:10:08;525313.00;1.75;905.42;70653.00;0.24;122.89;;;;;29.70;1.00;;;;;;2280593;61;1366;-88
2023/09/17 07:12:37;785854.00;2.62;1356.46;105405.00;0.35;182.90;;;;;30.10;1.00;;;;;;2280720;61;1094;-88
2023/09/17 07:15:06;529143.00;1.76;912.02;64719.00;0.22;112.63;;;;;29.70;1.00;;;;;;2280742;61;1102;-88
2023/09/17 07:17:33;440881.00;1.47;760.10;0.00;0.00;0.62;;;;;29.50;1.00;;;;;;2280758;61;1126;-89
2023/09/17 07:20:00;326514.00;1.09;563.49;0.00;0.00;0.62;;;;;29.30;1.00;;;;;;2280729;61;1374;-88
2023/09/17 07:22:27;175887.00;0.59;304.41;0.00;0.00;0.62;;;;;28.70;1.00;;;;;;2280678;61;1921;-88
2023/09/17 07:24:58;269547.00;0.90;465.57;0.00;0.00;0.62;;;;;28.40;1.00;;;;;;2280713;61;1149;-87
2023/09/17 07:27:27;254127.00;0.85;439.05;0.00;0.00;0.62;;;;;28.10;1.00;;;;;;2280713;61;1114;-87
2023/09/17 07:29:54;421996.00;1.41;727.62;15318.00;0.05;27.16;;;;;28.00;1.00;;;;;;2280584;61;1301;-89
2023/09/17 07:32:21;267878.00;0.89;462.70;0.00;0.00;0.62;;;;;28.20;1.00;;;;;;2280701;61;939;-89
2023/09/17 07:34:48;557977.00;1.86;961.71;39272.00;0.13;68.63;;;;;28.40;1.00;;;;;;2280646;61;2169;-88
2023/09/17 07:37:15;419762.00;1.40;723.78;6555.00;0.02;11.98;;;;;28.90;1.00;;;;;;2280607;61;1077;-88
2023/09/17 07:39:42;410828.00;1.37;708.42;0.00;0.00;0.62;;;;;28.90;1.00;;;;;;2280696;61;1293;-89
2023/09/17 07:42:10;521334.00;1.74;898.56;589.00;0.00;1.64;;;;;29.00;1.00;;;;;;2280670;61;2000;-88
2023/09/17 07:44:38;456503.00;1.52;786.97;26991.00;0.09;47.37;;;;;29.10;1.00;;;;;;2280562;61;1002;-88
2023/09/17 07:47:06;503208.00;1.68;867.35;26559.00;0.09;46.63;;;;;29.00;1.00;;;;;;2280698;61;1092;-88
2023/09/17 07:49:33;414173.00;1.38;714.17;0.00;0.00;0.62;;;;;28.70;1.00;;;;;;2280585;61;1286;-89
2023/09/17 07:52:00;650783.00;2.17;1121.99;15696.00;0.05;27.82;;;;;29.10;1.00;;;;;;2280652;61;929;-89
2023/09/17 07:54:28;415985.00;1.39;717.29;0.00;0.00;0.62;;;;;29.40;1.00;;;;;;2280661;61;922;-88
2023/09/17 07:56:55;478800.00;1.60;825.33;4942.00;0.02;9.19;;;;;29.60;1.00;;;;;;2280608;61;1071;-88
2023/09/17 07:59:21;824288.00;2.75;1423.52;324572.00;1.08;560.16;;;;;29.80;1.00;;;;;;2280582;61;1275;-88
2023/09/17 08:01:51;636784.00;2.12;1097.78;131284.00;0.44;227.54;;;;;30.40;1.00;;;;;;2280586;61;2002;-88
2023/09/17 08:04:17;492091.00;1.64;848.21;0.00;0.00;0.62;;;;;30.60;1.00;;;;;;2280569;61;997;-88
2023/09/17 08:06:44;459314.00;1.53;791.80;0.00;0.00;0.62;;;;;30.10;1.00;;;;;;2280660;61;1061;-88
2023/09/17 08:09:11;392035.00;1.31;676.11;33531.00;0.11;58.69;;;;;29.60;1.00;;;;;;2280505;61;1581;-89
2023/09/17 08:11:38;297227.00;0.99;513.15;0.00;0.00;0.62;;;;;29.80;1.00;;;;;;2280529;61;1056;-88
2023/09/17 08:14:05;585121.00;1.95;1008.54;77085.00;0.26;134.00;;;;;29.20;1.00;;;;;;2280573;61;2180;-88
2023/09/17 08:16:32;640155.00;2.13;1103.61;81367.00;0.27;141.40;;;;;29.00;1.00;;;;;;2280571;61;1099;-88
2023/09/17 08:19:00;453260.00;1.51;781.39;65289.00;0.22;113.62;;;;;28.90;1.00;;;;;;2280549;61;1248;-88
2023/09/17 08:21:28;700733.00;2.34;1208.51;107032.00;0.36;185.71;;;;;29.10;1.00;;;;;;2280566;61;2006;-89
2023/09/17 08:23:55;503322.00;1.68;867.54;76464.00;0.25;132.93;;;;;29.00;1.00;;;;;;2280577;61;1107;-89
2023/09/17 08:26:22;609736.00;2.03;1051.03;87084.00;0.29;151.27;;;;;29.50;1.00;;;;;;2280565;61;1043;-88
2023/09/17 08:28:49;564723.00;1.88;973.35;66371.00;0.22;115.49;;;;;29.30;1.00;;;;;;2280408;61;1393;-88
2023/09/17 08:31:17;696004.00;2.32;1200.31;105120.00;0.35;182.41;;;;;29.10;1.00;;;;;;2280445;61;1744;-89
2023/09/17 08:33:45;680113.00;2.27;1172.77;66739.00;0.22;116.12;;;;;29.40;1.00;;;;;;2280510;61;2411;-89
2023/09/17 08:36:14;373253.00;1.24;643.83;64822.00;0.22;112.81;;;;;29.20;1.00;;;;;;2280534;61;1107;-89
2023/09/17 08:38:42;352343.00;1.17;607.89;0.00;0.00;0.62;;;;;29.50;1.00;;;;;;2280481;61;1470;-89
2023/09/17 08:41:09;667421.00;2.22;1150.79;88484.00;0.29;153.69;;;;;29.50;1.00;;;;;;2280462;61;1099;-89
2023/09/17 08:43:37;523374.00;1.74;902.08;66297.00;0.22;115.36;;;;;30.00;1.00;;;;;;2280470;61;1938;-88
2023/09/17 08:46:06;1750527.00;5.84;3124.03;627640.00;2.09;1081.97;;;;;30.50;1.00;;;;;;2280498;61;1095;-89
2023/09/17 08:48:32;439129.00;1.46;757.08;66959.00;0.22;116.51;;;;;30.20;1.00;;;;;;2280423;61;1070;-87
2023/09/17 08:51:01;767247.00;2.56;1324.06;106140.00;0.35;184.17;;;;;30.70;1.00;;;;;;2280464;61;1191;-87
2023/09/17 08:53:37;535683.00;1.79;923.28;71647.00;0.24;124.61;;;;;30.30;1.00;;;;;;2280412;61;1082;-90
2023/09/17 08:56:06;484348.00;1.61;834.88;0.00;0.00;0.62;;;;;30.10;1.00;;;;;;2280467;61;1739;-89
2023/09/17 08:58:40;509473.00;1.70;878.13;71584.00;0.24;124.50;;;;;30.40;1.00;;;;;;2280464;61;1169;-87
2023/09/17 09:01:11;394604.00;1.32;680.53;0.00;0.00;0.62;;;;;30.60;1.00;;;;;;2280410;61;1027;-89
2023/09/17 09:03:40;856227.00;2.85;1479.37;130101.00;0.43;225.50;;;;;30.80;1.00;;;;;;2280441;61;1930;-89
2023/09/17 09:06:09;601484.00;2.00;1036.78;64499.00;0.21;112.25;;;;;30.50;1.00;;;;;;2280412;61;1032;-88
2023/09/17 09:08:39;533000.00;1.78;918.66;64988.00;0.22;113.10;;;;;30.60;1.00;;;;;;2280185;61;1116;-89
2023/09/17 09:11:06;629004.00;2.10;1084.33;70791.00;0.24;123.13;;;;;30.70;1.00;;;;;;2280323;61;2245;-87
2023/09/17 09:13:34;574139.00;1.91;989.59;89651.00;0.30;155.71;;;;;30.50;1.00;;;;;;2280407;61;1070;-89
2023/09/17 09:16:01;614949.00;2.05;1060.04;77970.00;0.26;135.53;;;;;30.50;1.00;;;;;;2280352;61;953;-88
2023/09/17 09:18:29;473889.00;1.58;816.88;88781.00;0.30;154.20;;;;;30.40;1.00;;;;;;2280391;61;1072;-89
2023/09/17 09:20:56;672340.00;2.24;1159.31;121655.00;0.41;210.94;;;;;30.20;1.00;;;;;;2280361;61;1386;-88
2023/09/17 09:23:23;337412.00;1.12;582.23;62562.00;0.21;108.91;;;;;29.90;1.00;;;;;;2280386;61;1931;-89
2023/09/17 09:25:51;117312856.00;391.04;65398008.00;71530.00;0.24;124.40;;;;;30.00;1.00;;;;;;2280278;61;2086;-89
2023/09/17 09:28:18;266975.00;0.89;461.14;64542.00;0.22;112.33;;;;;30.20;1.00;;;;;;2280398;61;1099;-89